Time;durP1;ratioP1;P1;durP2;ratioP2;P2;SDS_P1;SDS_P2;PMS_P1;PMS_P2;Temp;Humidity;BMP_temperature;BMP_pressure;BME280_temperature;BME280_humidity;BME280_pressure;Samples;Min_cycle;Max_cycle;Signal;HPM_P1;HPM_P2
2023/06/11 00:01:58;;;;;;;3.38;3.05;;;21.90;94.10;;;;;;4993389;28;20036;-41
2023/06/11 00:04:25;;;;;;;3.92;2.90;;;21.80;94.10;;;;;;5015346;28;20022;-41
2023/06/11 00:06:56;;;;;;;6.82;2.72;;;21.70;94.20;;;;;;5013895;28;20382;-54
2023/06/11 00:09:26;;;;;;;4.97;3.30;;;21.70;94.50;;;;;;5015908;28;20436;-41
2023/06/11 00:11:53;;;;;;;3.85;3.53;;;21.60;94.30;;;;;;5016167;28;20026;-43
2023/06/11 00:14:19;;;;;;;3.83;3.17;;;21.60;94.40;;;;;;5018380;28;20096;-40
2023/06/11 00:16:45;;;;;;;4.38;2.58;;;21.60;94.60;;;;;;5029059;28;20409;-49
2023/06/11 00:19:12;;;;;;;4.20;3.60;;;21.60;94.70;;;;;;5028366;28;20022;-41
2023/06/11 00:21:43;;;;;;;6.03;3.80;;;21.60;94.60;;;;;;5018251;28;20386;-42
2023/06/11 00:24:11;;;;;;;5.22;3.30;;;21.60;94.70;;;;;;5029443;28;20021;-42
2023/06/11 00:26:37;;;;;;;5.82;3.13;;;21.60;94.80;;;;;;5032165;28;20417;-40
2023/06/11 00:29:03;;;;;;;6.03;3.40;;;21.50;94.90;;;;;;5029190;28;20022;-39
2023/06/11 00:31:28;;;;;;;4.45;3.28;;;21.60;94.90;;;;;;5015473;28;20022;-45
2023/06/11 00:33:54;;;;;;;3.63;3.05;;;21.50;94.90;;;;;;5015363;28;20081;-41
2023/06/11 00:36:20;;;;;;;5.32;3.05;;;21.50;94.90;;;;;;5015441;28;20471;-40
2023/06/11 00:38:48;;;;;;;3.53;3.20;;;21.50;94.90;;;;;;5024180;28;20061;-41
2023/06/11 00:41:14;;;;;;;;;;;21.50;95.00;;;;;;5035469;28;20096;-39
2023/06/11 00:43:40;;;;;;;6.28;3.90;;;21.50;95.10;;;;;;5026983;28;19913;-41
2023/06/11 00:46:10;;;;;;;4.97;3.63;;;21.50;95.20;;;;;;5034986;28;20021;-40
2023/06/11 00:48:38;;;;;;;5.35;3.75;;;21.40;95.30;;;;;;5034920;28;20060;-40
2023/06/11 00:51:05;;;;;;;4.93;3.60;;;21.40;95.40;;;;;;5030620;28;20156;-41
2023/06/11 00:53:30;;;;;;;4.70;3.50;;;21.40;95.60;;;;;;5028309;28;20414;-38
2023/06/11 00:55:56;;;;;;;3.72;3.28;;;21.40;95.60;;;;;;5024246;28;20049;-40
2023/06/11 00:58:22;;;;;;;5.78;3.22;;;21.40;95.70;;;;;;5034593;28;20100;-39
2023/06/11 01:00:56;;;;;;;8.15;3.55;;;21.30;95.80;;;;;;5031073;28;20025;-41
2023/06/11 01:03:26;;;;;;;4.25;3.67;;;21.20;95.80;;;;;;5034434;28;20105;-39
2023/06/11 01:06:13;;;;;;;4.80;3.28;;;21.20;96.00;;;;;;5034541;28;20513;-40
2023/06/11 01:08:40;;;;;;;6.93;3.30;;;21.20;96.00;;;;;;5031124;28;20489;-39
2023/06/11 01:11:13;;;;;;;4.07;3.35;;;21.20;96.20;;;;;;5025415;28;20041;-39
2023/06/11 01:13:39;;;;;;;3.65;3.03;;;21.10;96.20;;;;;;5014729;28;20133;-38
2023/06/11 01:16:14;;;;;;;4.65;3.28;;;21.10;96.20;;;;;;5014686;28;20498;-39
2023/06/11 01:18:53;;;;;;;4.68;3.72;;;21.00;96.40;;;;;;5020864;28;20023;-40
2023/06/11 01:21:24;;;;;;;4.88;3.58;;;21.00;96.50;;;;;;4995025;28;20034;-39
2023/06/11 01:24:09;;;;;;;4.88;3.45;;;21.00;96.60;;;;;;5007378;28;20085;-39
2023/06/11 01:27:04;;;;;;;5.35;4.03;;;20.90;96.70;;;;;;5034265;28;20033;-40
2023/06/11 01:29:33;;;;;;;8.10;3.33;;;20.90;96.90;;;;;;5026315;28;20021;-40
2023/06/11 01:32:00;;;;;;;5.13;3.55;;;20.80;97.00;;;;;;5034169;28;20090;-42
2023/06/11 01:34:26;;;;;;;13.23;3.50;;;20.80;97.10;;;;;;5024597;28;20539;-39
2023/06/11 01:36:52;;;;;;;4.07;3.15;;;20.80;97.30;;;;;;5014601;28;20024;-40
2023/06/11 01:39:19;;;;;;;4.35;3.08;;;20.70;97.40;;;;;;5027473;28;20025;-40
2023/06/11 01:41:45;;;;;;;11.85;4.20;;;20.70;97.50;;;;;;5034007;28;20109;-39
2023/06/11 01:44:12;;;;;;;5.18;3.70;;;20.60;97.60;;;;;;5032174;28;20026;-40
2023/06/11 01:46:37;;;;;;;5.07;3.72;;;20.60;97.80;;;;;;5019117;28;20527;-41
2023/06/11 01:49:03;;;;;;;5.18;3.72;;;20.60;98.00;;;;;;5031883;28;20021;-39
2023/06/11 01:51:29;;;;;;;10.80;4.38;;;20.60;98.20;;;;;;5031123;28;20026;-41
2023/06/11 01:53:55;;;;;;;6.93;4.15;;;20.60;98.40;;;;;;5031056;28;20037;-42
2023/06/11 01:56:21;;;;;;;4.93;4.33;;;20.60;98.50;;;;;;5033478;28;20398;-40
2023/06/11 01:58:47;;;;;;;10.23;4.50;;;20.60;98.50;;;;;;5033578;28;20021;-41
2023/06/11 02:01:13;;;;;;;7.05;3.85;;;20.60;98.60;;;;;;5031471;28;20029;-39
2023/06/11 02:03:42;;;;;;;6.55;3.80;;;20.60;98.70;;;;;;5019911;28;20056;-39
2023/06/11 02:06:08;;;;;;;10.30;4.32;;;20.60;98.70;;;;;;5033555;28;20032;-40
2023/06/11 02:08:35;;;;;;;4.72;3.38;;;20.70;98.90;;;;;;5027906;28;20046;-39
2023/06/11 02:11:01;;;;;;;4.10;3.72;;;20.70;98.90;;;;;;5027805;28;20568;-42
2023/06/11 02:13:30;;;;;;;4.72;3.92;;;20.70;98.90;;;;;;5017831;28;20017;-40
2023/06/11 02:15:58;;;;;;;6.53;4.15;;;20.70;99.00;;;;;;5033520;28;20021;-39
2023/06/11 02:18:24;;;;;;;;;;;20.60;99.20;;;;;;5030428;28;20101;-40
2023/06/11 02:20:49;;;;;;;5.93;4.10;;;20.60;99.20;;;;;;5013528;28;20377;-39
2023/06/11 02:23:16;;;;;;;6.90;4.10;;;20.60;99.30;;;;;;5013564;28;20109;-40
2023/06/11 02:25:41;;;;;;;8.15;3.90;;;20.60;99.40;;;;;;5033102;28;20105;-42
2023/06/11 02:28:07;;;;;;;8.13;4.25;;;20.60;99.50;;;;;;5033179;28;20101;-40
2023/06/11 02:30:33;;;;;;;4.22;3.83;;;20.60;99.60;;;;;;5033126;28;20064;-39
2023/06/11 02:32:58;;;;;;;6.35;4.68;;;20.60;99.70;;;;;;5028253;28;20065;-38
2023/06/11 02:35:24;;;;;;;7.40;4.15;;;20.70;99.90;;;;;;5013116;28;20501;-40
2023/06/11 02:37:50;;;;;;;5.88;4.25;;;20.70;99.90;;;;;;5012010;28;20028;-38
2023/06/11 02:40:15;;;;;;;5.40;4.40;;;20.70;99.90;;;;;;5027653;28;20104;-36
2023/06/11 02:42:41;;;;;;;7.55;4.70;;;20.70;99.90;;;;;;5030852;28;20048;-34
2023/06/11 02:45:07;;;;;;;4.90;4.40;;;20.60;99.90;;;;;;5032838;28;20032;-36
2023/06/11 02:47:33;;;;;;;10.93;4.95;;;20.60;99.90;;;;;;5024353;28;20104;-35
2023/06/11 02:49:58;;;;;;;4.72;4.15;;;20.60;99.90;;;;;;5013033;28;20597;-62
2023/06/11 02:52:24;;;;;;;6.35;4.18;;;20.60;99.90;;;;;;5011931;28;20486;-33
2023/06/11 02:54:50;;;;;;;7.95;4.35;;;20.50;99.90;;;;;;5029601;28;20045;-31
2023/06/11 02:57:15;;;;;;;5.85;4.35;;;20.50;99.90;;;;;;5032772;28;20049;-31
2023/06/11 02:59:41;;;;;;;5.57;4.45;;;20.40;99.90;;;;;;5029987;28;20024;-35
2023/06/11 03:02:07;;;;;;;5.78;4.30;;;20.50;99.90;;;;;;5032715;28;20018;-32
2023/06/11 03:04:32;;;;;;;6.80;3.95;;;20.40;99.90;;;;;;5032628;28;20024;-35
2023/06/11 03:06:58;;;;;;;10.20;4.75;;;20.40;99.90;;;;;;5032638;28;20441;-36
2023/06/11 03:09:24;;;;;;;5.72;4.70;;;20.40;99.90;;;;;;5023736;28;20121;-33
2023/06/11 03:11:53;;;;;;;8.57;4.93;;;20.30;99.90;;;;;;5012864;28;20423;-34
2023/06/11 03:14:20;;;;;;;7.88;5.00;;;20.40;99.90;;;;;;5013042;28;20022;-32
2023/06/11 03:16:46;;;;;;;12.90;4.78;;;20.40;99.90;;;;;;5012843;28;20014;-34
2023/06/11 03:19:12;;;;;;;8.75;5.15;;;20.40;99.90;;;;;;5023756;28;20042;-32
2023/06/11 03:21:38;;;;;;;5.72;4.32;;;20.30;99.90;;;;;;5028129;28;20093;-37
2023/06/11 03:24:04;;;;;;;9.65;5.22;;;20.30;99.90;;;;;;5028712;28;20026;-33
2023/06/11 03:26:29;;;;;;;4.90;4.40;;;20.30;99.90;;;;;;5026280;28;20537;-34
2023/06/11 03:28:55;;;;;;;6.68;4.95;;;20.30;99.90;;;;;;5012766;28;20057;-32
2023/06/11 03:31:21;;;;;;;7.03;5.57;;;20.30;99.90;;;;;;5012742;28;20099;-32
2023/06/11 03:33:46;;;;;;;5.72;4.68;;;20.40;99.90;;;;;;5012652;28;20026;-31
2023/06/11 03:36:12;;;;;;;10.55;5.50;;;20.40;99.90;;;;;;5021620;28;20512;-34
2023/06/11 03:38:38;;;;;;;5.63;5.03;;;20.30;99.90;;;;;;5031759;28;20025;-31
2023/06/11 03:41:03;;;;;;;7.00;5.25;;;20.40;99.90;;;;;;5036089;28;20025;-30
2023/06/11 03:43:29;;;;;;;8.32;5.28;;;20.40;99.90;;;;;;5031791;28;20032;-38
2023/06/11 03:45:55;;;;;;;6.18;5.22;;;20.50;99.90;;;;;;5024807;28;20112;-33
2023/06/11 03:48:21;;;;;;;8.27;5.43;;;20.40;99.90;;;;;;5036106;28;20030;-34
2023/06/11 03:50:46;;;;;;;7.68;5.38;;;20.40;99.90;;;;;;5019850;28;20053;-36
2023/06/11 03:53:13;;;;;;;6.63;5.30;;;20.40;99.90;;;;;;5014906;28;20355;-35
2023/06/11 03:55:39;;;;;;;10.18;6.05;;;20.40;99.90;;;;;;5031449;28;20045;-30
2023/06/11 03:58:08;;;;;;;8.68;5.32;;;20.40;99.90;;;;;;5035865;28;20060;-32
2023/06/11 04:00:33;;;;;;;5.40;4.90;;;20.40;99.90;;;;;;5030697;28;20051;-34
2023/06/11 04:02:59;;;;;;;6.00;5.03;;;20.40;99.90;;;;;;5015986;28;20109;-38
2023/06/11 04:05:25;;;;;;;10.13;6.00;;;20.50;99.90;;;;;;5031268;28;20030;-34
2023/06/11 04:07:51;;;;;;;8.35;5.95;;;20.60;99.90;;;;;;5035698;28;20026;-33
2023/06/11 04:10:16;;;;;;;5.75;4.88;;;20.60;99.90;;;;;;5031656;28;20500;-31
2023/06/11 04:12:42;;;;;;;12.93;5.68;;;20.50;99.90;;;;;;5035577;28;20108;-40
2023/06/11 04:15:08;;;;;;;7.82;5.93;;;20.60;99.90;;;;;;5033358;28;20026;-33
2023/06/11 04:17:34;;;;;;;9.43;5.15;;;20.70;99.90;;;;;;5030478;28;20033;-31
2023/06/11 04:20:00;;;;;;;6.63;5.22;;;20.70;99.90;;;;;;5015895;28;20014;-34
2023/06/11 04:22:26;;;;;;;7.40;5.32;;;20.70;99.90;;;;;;5014354;28;20018;-31
2023/06/11 04:24:53;;;;;;;9.25;5.78;;;20.70;99.90;;;;;;5025351;28;20033;-30
2023/06/11 04:27:20;;;;;;;7.90;5.88;;;20.70;99.90;;;;;;5035640;28;20108;-32
2023/06/11 04:29:48;;;;;;;6.00;4.50;;;20.70;99.90;;;;;;5035197;28;20033;-31
2023/06/11 04:32:16;;;;;;;6.85;5.55;;;20.60;99.90;;;;;;5035416;28;20018;-36
2023/06/11 04:34:43;;;;;;;6.43;5.20;;;20.70;99.90;;;;;;5026622;28;20456;-31
2023/06/11 04:37:09;;;;;;;6.87;5.40;;;20.70;99.90;;;;;;5015481;28;20390;-36
2023/06/11 04:39:35;;;;;;;11.10;6.10;;;20.70;99.90;;;;;;5021079;28;20279;-30
2023/06/11 04:42:02;;;;;;;8.07;5.40;;;20.70;99.90;;;;;;5035013;28;20029;-36
2023/06/11 04:44:28;;;;;;;6.00;5.22;;;20.80;99.90;;;;;;5033241;28;20079;-34
2023/06/11 04:46:57;;;;;;;6.25;5.50;;;20.80;99.90;;;;;;5033723;28;20025;-31
2023/06/11 04:49:23;;;;;;;8.98;5.78;;;20.80;99.90;;;;;;5034518;28;20105;-37
2023/06/11 04:51:52;;;;;;;12.20;5.80;;;20.90;99.90;;;;;;5025452;28;20525;-30
2023/06/11 04:54:21;;;;;;;6.20;4.95;;;20.90;99.90;;;;;;5018639;28;20469;-30
2023/06/11 04:56:47;;;;;;;7.32;5.30;;;20.90;99.90;;;;;;5033067;28;20037;-36
2023/06/11 04:59:13;;;;;;;7.50;5.40;;;20.90;99.90;;;;;;5033616;28;20378;-33
2023/06/11 05:01:46;;;;;;;13.68;5.78;;;21.00;99.90;;;;;;5032216;28;20037;-31
2023/06/11 05:04:15;;;;;;;15.65;6.65;;;21.00;99.90;;;;;;5033363;28;20104;-34
2023/06/11 05:06:45;;;;;;;6.32;5.30;;;21.10;99.90;;;;;;5034799;28;20159;-34
2023/06/11 05:09:13;;;;;;;7.20;5.80;;;21.10;99.90;;;;;;5026372;28;20121;-34
2023/06/11 05:11:44;;;;;;;8.50;5.63;;;21.20;99.90;;;;;;5034465;28;20037;-36
2023/06/11 05:14:10;;;;;;;13.48;5.35;;;21.30;99.90;;;;;;5034478;28;20026;-35
2023/06/11 05:16:36;;;;;;;7.83;5.10;;;21.30;99.90;;;;;;5031942;28;20029;-33
2023/06/11 05:19:03;;;;;;;7.55;5.80;;;21.30;99.90;;;;;;5015075;28;20693;-31
2023/06/11 05:21:28;;;;;;;5.15;4.65;;;21.40;99.90;;;;;;5018261;28;20352;-31
2023/06/11 05:23:54;;;;;;;5.97;5.38;;;21.50;99.90;;;;;;5013997;28;20105;-37
2023/06/11 05:26:32;;;;;;;7.75;5.18;;;21.60;99.90;;;;;;5020891;28;20026;-36
2023/06/11 05:28:58;;;;;;;5.57;4.63;;;21.70;99.90;;;;;;5013792;28;20029;-32
2023/06/11 05:31:23;;;;;;;10.05;5.60;;;21.80;99.90;;;;;;5013193;28;20025;-34
2023/06/11 05:33:49;;;;;;;11.52;4.75;;;21.90;99.90;;;;;;5019437;28;20021;-32
2023/06/11 05:36:16;;;;;;;26.48;5.75;;;22.00;99.90;;;;;;5033889;28;20020;-31
2023/06/11 05:38:42;;;;;;;6.97;5.03;;;21.90;99.90;;;;;;5034022;28;20014;-31
2023/06/11 05:41:08;;;;;;;8.50;5.32;;;22.00;99.90;;;;;;5029446;28;20629;-30
2023/06/11 05:43:33;;;;;;;7.55;5.35;;;22.10;99.90;;;;;;5019797;28;20029;-33
2023/06/11 05:45:59;;;;;;;6.53;4.43;;;22.20;99.90;;;;;;5014166;28;20026;-40
2023/06/11 05:48:26;;;;;;;7.97;5.13;;;22.30;99.90;;;;;;5014075;28;20026;-32
2023/06/11 05:50:52;;;;;;;;;;;22.40;99.90;;;;;;5028664;28;20069;-32
2023/06/11 05:53:18;;;;;;;6.93;4.80;;;22.40;99.90;;;;;;5033952;28;19990;-34
2023/06/11 05:55:43;;;;;;;6.32;5.10;;;22.50;99.90;;;;;;5029257;28;20045;-32
2023/06/11 05:58:09;;;;;;;6.38;5.32;;;22.60;99.90;;;;;;5032316;28;20030;-31
2023/06/11 06:00:35;;;;;;;10.43;5.32;;;22.90;99.90;;;;;;5019075;28;20041;-33
2023/06/11 06:03:04;;;;;;;6.70;5.25;;;23.10;99.90;;;;;;5013802;28;20029;-35
2023/06/11 06:05:30;;;;;;;7.90;5.03;;;23.20;99.90;;;;;;5013388;28;20022;-32
2023/06/11 06:07:56;;;;;;;6.47;5.22;;;23.10;99.90;;;;;;5013705;28;20088;-33
2023/06/11 06:10:21;;;;;;;8.15;5.25;;;23.20;99.90;;;;;;5016723;28;20462;-34
2023/06/11 06:12:47;;;;;;;6.38;4.57;;;23.50;99.90;;;;;;5013432;28;20076;-33
2023/06/11 06:15:13;;;;;;;6.75;5.40;;;23.60;99.90;;;;;;5006843;28;20026;-30
2023/06/11 06:17:38;;;;;;;5.93;4.90;;;23.60;99.90;;;;;;5007459;28;20414;-30
2023/06/11 06:20:05;;;;;;;5.28;4.65;;;23.80;99.90;;;;;;5012802;28;20030;-33
2023/06/11 06:22:31;;;;;;;11.38;5.07;;;24.00;99.90;;;;;;5003511;28;20419;-30
2023/06/11 06:24:57;;;;;;;6.95;4.82;;;24.40;99.90;;;;;;4993961;28;20030;-33
2023/06/11 06:27:22;;;;;;;5.90;4.80;;;25.00;99.60;;;;;;5008826;28;20034;-34
2023/06/11 06:29:49;;;;;;;8.25;4.80;;;25.50;99.50;;;;;;5005970;28;20044;-31
2023/06/11 06:32:15;;;;;;;5.35;4.68;;;26.20;98.80;;;;;;5013438;28;20482;-34
2023/06/11 06:34:41;;;;;;;8.73;4.80;;;26.30;98.10;;;;;;5013098;28;20053;-37
2023/06/11 06:37:06;;;;;;;7.82;5.53;;;26.30;97.90;;;;;;5012515;28;20029;-36
2023/06/11 06:39:32;;;;;;;6.22;5.28;;;26.10;97.90;;;;;;5013143;28;20030;-42
2023/06/11 06:41:58;;;;;;;6.55;4.95;;;26.00;97.70;;;;;;5013565;28;20034;-41
2023/06/11 06:44:24;;;;;;;10.90;5.22;;;26.10;98.20;;;;;;5013351;28;20455;-40
2023/06/11 06:46:49;;;;;;;5.30;4.72;;;26.60;98.00;;;;;;5013271;28;20030;-38
2023/06/11 06:49:15;;;;;;;7.63;4.90;;;26.70;97.70;;;;;;5013174;28;20022;-40
2023/06/11 06:51:41;;;;;;;5.07;4.22;;;26.80;97.70;;;;;;5000287;28;20038;-39
2023/06/11 06:54:06;;;;;;;7.57;4.70;;;26.80;97.60;;;;;;5003911;28;20030;-42
2023/06/11 06:56:33;;;;;;;5.55;4.75;;;26.80;97.50;;;;;;5013012;28;20080;-43
2023/06/11 06:58:58;;;;;;;4.60;4.13;;;26.80;97.50;;;;;;5013172;28;20041;-40
2023/06/11 07:01:24;;;;;;;4.85;4.40;;;27.00;97.30;;;;;;5013118;28;20033;-40
2023/06/11 07:03:50;;;;;;;6.53;4.43;;;27.50;97.00;;;;;;5013337;28;20470;-40
2023/06/11 07:06:16;;;;;;;10.65;4.88;;;28.20;96.40;;;;;;5012938;28;20488;-37
2023/06/11 07:08:41;;;;;;;5.10;4.70;;;29.40;95.90;;;;;;4999166;28;20030;-41
2023/06/11 07:11:07;;;;;;;9.55;5.00;;;31.00;94.80;;;;;;5002278;28;20387;-53
2023/06/11 07:13:33;;;;;;;5.25;4.63;;;32.20;93.60;;;;;;5017187;28;20418;-39
2023/06/11 07:15:59;;;;;;;6.22;4.50;;;32.60;92.90;;;;;;5016973;28;20033;-40
2023/06/11 07:18:26;;;;;;;5.85;3.75;;;32.90;92.60;;;;;;5021756;28;20017;-41
2023/06/11 07:20:52;;;;;;;7.95;4.45;;;32.70;92.90;;;;;;5036782;28;20025;-39
2023/06/11 07:23:17;;;;;;;5.32;4.47;;;32.30;92.80;;;;;;5036561;28;20466;-40
2023/06/11 07:25:44;;;;;;;6.10;4.47;;;31.70;93.00;;;;;;5020125;28;20492;-39
2023/06/11 07:28:10;;;;;;;5.90;4.28;;;31.70;93.10;;;;;;5009939;28;20026;-36
2023/06/11 07:30:36;;;;;;;4.82;3.97;;;31.70;93.00;;;;;;5014283;28;20038;-31
2023/06/11 07:33:02;;;;;;;6.67;4.37;;;31.80;93.00;;;;;;5013648;28;21881;-39
2023/06/11 07:35:28;;;;;;;5.95;4.35;;;31.90;93.40;;;;;;5011712;28;20104;-31
2023/06/11 07:37:54;;;;;;;7.57;4.82;;;32.10;93.10;;;;;;5015425;28;20068;-31
2023/06/11 07:40:20;;;;;;;8.43;4.38;;;32.10;93.10;;;;;;5011803;28;20026;-32
2023/06/11 07:42:47;;;;;;;4.97;4.20;;;31.90;93.10;;;;;;5014679;28;20441;-37
2023/06/11 07:45:13;;;;;;;5.18;4.28;;;31.60;93.00;;;;;;5015238;28;20030;-31
2023/06/11 07:47:40;;;;;;;5.15;4.32;;;31.00;93.50;;;;;;5012403;28;20074;-32
2023/06/11 07:50:06;;;;;;;4.85;4.35;;;30.60;93.90;;;;;;5031517;28;20037;-30
2023/06/11 07:52:32;;;;;;;7.05;4.35;;;30.30;94.10;;;;;;5016077;28;20038;-36
2023/06/11 07:54:58;;;;;;;4.83;4.40;;;30.20;94.00;;;;;;5015899;28;20045;-35
2023/06/11 07:57:23;;;;;;;5.28;4.25;;;30.20;93.90;;;;;;5029813;28;20087;-39
2023/06/11 07:59:49;;;;;;;5.95;4.43;;;30.10;94.50;;;;;;5014830;28;20025;-30
2023/06/11 08:02:15;;;;;;;4.28;3.95;;;30.10;93.90;;;;;;5015500;28;20040;-32
2023/06/11 08:04:41;;;;;;;5.30;4.32;;;30.20;94.00;;;;;;5015989;28;20498;-33
2023/06/11 08:07:07;;;;;;;8.87;4.03;;;30.50;93.50;;;;;;5015919;28;20022;-32
2023/06/11 08:09:36;;;;;;;7.47;5.03;;;30.50;94.00;;;;;;5015364;28;20030;-31
2023/06/11 08:12:03;;;;;;;4.63;4.22;;;30.80;93.50;;;;;;5019254;28;20058;-36
2023/06/11 08:14:29;;;;;;;11.23;4.68;;;31.00;93.60;;;;;;5012519;28;20030;-30
2023/06/11 08:16:55;;;;;;;5.63;3.97;;;31.20;93.60;;;;;;5012892;28;20032;-35
2023/06/11 08:19:20;;;;;;;6.57;4.40;;;31.30;93.50;;;;;;5021311;28;20401;-34
2023/06/11 08:21:47;;;;;;;8.37;4.27;;;31.30;93.30;;;;;;5021145;28;20075;-39
2023/06/11 08:24:13;;;;;;;5.82;4.50;;;31.60;93.10;;;;;;5020724;28;20026;-32
2023/06/11 08:26:38;;;;;;;5.93;4.30;;;31.80;92.70;;;;;;5023713;28;20042;-31
2023/06/11 08:29:04;;;;;;;6.03;4.67;;;31.80;92.70;;;;;;5035275;28;20482;-32
2023/06/11 08:31:30;;;;;;;5.03;4.27;;;31.90;92.90;;;;;;5020584;28;20060;-33
2023/06/11 08:33:55;;;;;;;4.67;3.70;;;32.10;92.80;;;;;;5017164;28;20053;-33
2023/06/11 08:36:21;;;;;;;7.27;4.40;;;32.10;92.80;;;;;;5020053;28;20029;-34
2023/06/11 08:38:47;;;;;;;6.27;4.27;;;32.30;92.50;;;;;;5034998;28;20386;-34
2023/06/11 08:41:14;;;;;;;7.63;4.15;;;32.60;92.60;;;;;;5029676;28;20091;-35
2023/06/11 08:43:40;;;;;;;5.93;4.22;;;32.80;92.60;;;;;;5033849;28;20021;-32
2023/06/11 08:46:12;;;;;;;6.03;4.53;;;33.10;92.50;;;;;;5030479;28;20156;-36
2023/06/11 08:48:42;;;;;;;4.85;4.15;;;33.50;91.90;;;;;;5034985;28;20029;-36
2023/06/11 08:51:10;;;;;;;7.35;4.18;;;33.50;91.90;;;;;;5012875;28;20101;-41
2023/06/11 08:53:36;;;;;;;4.65;4.15;;;33.70;91.60;;;;;;5011465;28;20097;-36
2023/06/11 08:56:02;;;;;;;;;;;33.70;91.50;;;;;;5018401;28;20057;-32
2023/06/11 08:58:30;;;;;;;;;;;33.40;91.80;;;;;;5030063;28;20282;-33
2023/06/11 09:00:56;;;;;;;4.05;3.67;;;33.60;91.40;;;;;;5029752;28;19928;-34
2023/06/11 09:03:21;;;;;;;4.20;3.75;;;33.70;91.60;;;;;;5013225;28;20018;-40
2023/06/11 09:05:47;;;;;;;5.20;4.80;;;33.90;91.30;;;;;;5024761;28;20029;-33
2023/06/11 09:08:13;;;;;;;4.32;3.92;;;34.00;90.90;;;;;;5016834;28;20035;-33
2023/06/11 09:10:51;;;;;;;6.43;4.83;;;33.90;91.50;;;;;;5025958;28;20053;-31
2023/06/11 09:13:18;;;;;;;10.07;4.47;;;33.60;91.60;;;;;;5034598;28;20103;-30
2023/06/11 09:15:48;;;;;;;;;;;33.60;91.50;;;;;;5020428;28;20489;-33
2023/06/11 09:18:22;;;;;;;6.85;4.35;;;33.40;91.60;;;;;;5027394;28;19916;-31
2023/06/11 09:20:50;;;;;;;4.35;4.00;;;33.20;91.20;;;;;;5023954;28;20037;-31
2023/06/11 09:23:37;;;;;;;4.97;4.47;;;33.20;91.30;;;;;;5019217;28;20025;-36
2023/06/11 09:26:03;;;;;;;4.40;4.07;;;33.00;92.20;;;;;;5014547;28;20068;-35
2023/06/11 09:28:33;;;;;;;6.93;4.10;;;33.00;91.60;;;;;;5018677;28;20064;-35
2023/06/11 09:31:01;;;;;;;5.70;3.88;;;32.90;91.60;;;;;;5015706;28;20087;-31
2023/06/11 09:33:31;;;;;;;7.97;4.10;;;32.60;91.70;;;;;;5010916;28;20038;-33
2023/06/11 09:35:57;;;;;;;4.50;4.10;;;32.00;92.10;;;;;;5017417;28;20423;-32
2023/06/11 09:38:23;;;;;;;4.95;4.18;;;31.70;92.40;;;;;;5011408;28;20030;-35
2023/06/11 09:40:56;;;;;;;4.50;4.10;;;31.60;92.70;;;;;;5018703;28;20076;-37
2023/06/11 09:43:23;;;;;;;4.43;4.03;;;31.40;92.80;;;;;;5018241;28;20104;-47
2023/06/11 09:45:52;;;;;;;4.85;3.50;;;31.50;92.60;;;;;;5025399;28;20549;-34
2023/06/11 09:48:28;;;;;;;5.68;3.70;;;31.50;92.80;;;;;;5018514;28;20053;-36
2023/06/11 09:50:54;;;;;;;4.20;3.80;;;31.60;92.60;;;;;;5018255;28;20033;-31
2023/06/11 09:53:22;;;;;;;8.30;4.30;;;31.60;92.60;;;;;;5010071;28;20271;-36
2023/06/11 09:55:50;;;;;;;4.40;4.00;;;31.50;92.60;;;;;;5009200;28;20049;-33
2023/06/11 09:58:26;;;;;;;5.97;3.88;;;31.30;92.90;;;;;;5007306;28;20048;-36
2023/06/11 10:00:58;;;;;;;4.57;3.92;;;31.10;92.80;;;;;;5004105;28;20521;-37
2023/06/11 10:03:24;;;;;;;5.45;4.07;;;31.20;92.50;;;;;;5010651;28;20014;-36
2023/06/11 10:05:51;;;;;;;3.35;3.05;;;31.10;92.30;;;;;;5006541;28;20036;-35
2023/06/11 10:08:22;;;;;;;4.22;3.83;;;31.20;92.30;;;;;;5003141;28;20512;-36
2023/06/11 10:10:55;;;;;;;5.75;4.10;;;31.40;92.00;;;;;;5000265;28;20841;-36
2023/06/11 10:13:31;;;;;;;6.03;4.20;;;31.70;92.20;;;;;;5010356;28;20037;-39
2023/06/11 10:16:06;;;;;;;4.05;3.72;;;32.00;92.00;;;;;;5023055;28;20044;-33
2023/06/11 10:18:32;;;;;;;3.23;2.90;;;32.40;91.80;;;;;;5005175;28;20030;-37
2023/06/11 10:21:03;;;;;;;5.73;3.77;;;32.50;91.70;;;;;;5009239;28;20401;-35
2023/06/11 10:23:40;;;;;;;6.45;3.92;;;32.20;91.50;;;;;;5007075;28;20025;-38
2023/06/11 10:26:07;;;;;;;3.85;3.50;;;32.30;91.60;;;;;;5027902;28;20082;-35
2023/06/11 10:28:43;;;;;;;4.38;4.07;;;32.20;91.60;;;;;;5013645;28;20089;-36
2023/06/11 10:31:09;;;;;;;4.95;3.50;;;32.20;91.70;;;;;;5011516;28;20026;-35
2023/06/11 10:33:46;;;;;;;7.30;3.60;;;32.40;91.90;;;;;;5008830;28;20496;-33
2023/06/11 10:36:22;;;;;;;4.90;4.00;;;32.60;91.00;;;;;;5014405;28;20040;-34
2023/06/11 10:38:48;;;;;;;6.13;3.53;;;32.70;90.60;;;;;;5026875;28;20084;-31
2023/06/11 10:41:13;;;;;;;5.47;3.13;;;32.60;90.20;;;;;;5020603;28;20360;-33
2023/06/11 10:43:40;;;;;;;6.30;3.83;;;32.40;91.10;;;;;;5012520;28;20037;-35
2023/06/11 10:46:12;;;;;;;;;;;32.20;90.90;;;;;;5012317;28;20394;-36
2023/06/11 10:48:50;;;;;;;3.58;3.22;;;32.20;90.60;;;;;;5012354;28;19909;-35
2023/06/11 10:51:16;;;;;;;4.05;3.75;;;32.20;90.80;;;;;;5008241;28;20422;-39
2023/06/11 10:53:41;;;;;;;4.30;3.67;;;32.30;90.50;;;;;;5012962;28;20506;-44
2023/06/11 10:56:09;;;;;;;3.93;3.57;;;32.20;90.70;;;;;;5012232;28;20117;-36
2023/06/11 10:58:36;;;;;;;7.47;3.63;;;32.00;91.10;;;;;;5010985;28;20062;-37
2023/06/11 11:01:06;;;;;;;4.13;3.72;;;32.00;90.60;;;;;;5018304;28;20077;-35
2023/06/11 11:03:33;;;;;;;7.63;3.85;;;32.10;90.50;;;;;;5012982;28;20300;-32
2023/06/11 11:05:59;;;;;;;8.32;3.65;;;32.10;90.50;;;;;;5013306;28;20033;-33
2023/06/11 11:08:25;;;;;;;4.85;3.90;;;32.00;90.60;;;;;;5025961;28;20032;-34
2023/06/11 11:11:01;;;;;;;5.20;3.47;;;32.00;90.80;;;;;;5009490;28;20030;-36
2023/06/11 11:13:28;;;;;;;4.00;3.67;;;32.00;90.40;;;;;;5010094;28;20082;-31
2023/06/11 11:15:54;;;;;;;5.78;3.90;;;32.00;90.50;;;;;;5005669;28;20520;-36
2023/06/11 11:18:20;;;;;;;4.03;3.63;;;31.90;90.40;;;;;;5012625;28;20017;-38
2023/06/11 11:20:46;;;;;;;4.00;3.70;;;31.90;91.20;;;;;;5030740;28;20091;-34
2023/06/11 11:23:12;;;;;;;4.37;3.30;;;32.00;90.90;;;;;;5013531;28;20030;-37
2023/06/11 11:25:38;;;;;;;4.07;3.47;;;32.10;90.80;;;;;;5011185;28;20072;-32
2023/06/11 11:28:05;;;;;;;3.35;3.13;;;32.10;90.40;;;;;;5008532;28;20482;-37
2023/06/11 11:30:31;;;;;;;5.00;3.42;;;32.00;90.30;;;;;;5005511;28;20026;-36
2023/06/11 11:32:58;;;;;;;4.70;3.50;;;31.70;90.90;;;;;;5002287;28;20029;-33
2023/06/11 11:35:26;;;;;;;4.78;4.38;;;31.70;91.40;;;;;;5008049;28;20026;-39
2023/06/11 11:37:54;;;;;;;5.82;4.05;;;31.60;90.90;;;;;;5017808;28;20375;-33
2023/06/11 11:40:21;;;;;;;8.07;4.05;;;31.60;91.10;;;;;;5005972;28;20512;-38
2023/06/11 11:42:51;;;;;;;3.75;3.45;;;31.50;90.90;;;;;;5007114;28;20026;-32
2023/06/11 11:45:18;;;;;;;3.42;3.15;;;31.40;90.90;;;;;;5009481;28;20045;-33
2023/06/11 11:47:52;;;;;;;3.65;3.35;;;31.50;91.20;;;;;;5014689;28;20030;-31
2023/06/11 11:50:27;;;;;;;3.47;3.28;;;31.70;90.40;;;;;;5014775;28;20061;-33
2023/06/11 11:53:05;;;;;;;7.28;3.40;;;31.80;89.80;;;;;;5015060;28;20045;-38
2023/06/11 11:55:33;;;;;;;3.83;3.22;;;31.80;90.40;;;;;;5016295;28;20482;-41
2023/06/11 11:58:09;;;;;;;3.42;2.97;;;32.00;89.90;;;;;;5009252;28;20113;-35
2023/06/11 12:00:37;;;;;;;3.13;2.90;;;31.90;90.00;;;;;;5024590;28;20022;-33
2023/06/11 12:03:10;;;;;;;3.55;3.30;;;32.10;90.10;;;;;;5012064;28;20550;-34
2023/06/11 12:05:37;;;;;;;4.47;3.47;;;32.30;89.60;;;;;;5012767;28;20037;-31
2023/06/11 12:08:06;;;;;;;;;;;32.30;89.70;;;;;;5013250;28;20113;-38
2023/06/11 12:10:32;;;;;;;3.80;3.38;;;32.30;90.40;;;;;;5034152;28;19913;-32
2023/06/11 12:12:59;;;;;;;4.07;3.03;;;32.50;89.30;;;;;;5035874;28;20438;-40
2023/06/11 12:15:25;;;;;;;3.60;3.30;;;32.50;89.80;;;;;;4996844;28;20046;-35
2023/06/11 12:17:51;;;;;;;3.45;3.20;;;32.40;88.80;;;;;;4997293;28;20027;-35
2023/06/11 12:20:17;;;;;;;6.93;3.92;;;32.20;89.40;;;;;;5021911;28;20017;-36
2023/06/11 12:22:43;;;;;;;10.27;3.33;;;32.20;89.90;;;;;;5022683;28;20100;-39
2023/06/11 12:25:09;;;;;;;4.50;3.50;;;32.20;90.00;;;;;;5017119;28;20474;-33
2023/06/11 12:27:36;;;;;;;5.73;3.47;;;32.30;89.80;;;;;;5035338;28;20032;-31
2023/06/11 12:30:02;;;;;;;4.03;3.20;;;32.40;90.20;;;;;;5025186;28;20022;-33
2023/06/11 12:32:30;;;;;;;3.47;3.17;;;32.50;90.00;;;;;;5031691;28;20060;-37
2023/06/11 12:34:56;;;;;;;4.68;3.75;;;32.50;90.00;;;;;;5022200;28;20045;-34
2023/06/11 12:37:22;;;;;;;6.23;3.17;;;32.60;89.40;;;;;;5013997;28;20061;-36
2023/06/11 12:39:47;;;;;;;4.20;3.80;;;32.60;89.50;;;;;;5012294;28;20080;-40
2023/06/11 12:42:14;;;;;;;3.50;3.20;;;32.70;89.30;;;;;;5010220;28;20398;-34
2023/06/11 12:44:45;;;;;;;3.13;2.92;;;32.60;88.80;;;;;;5014745;28;20471;-38
2023/06/11 12:47:11;;;;;;;4.38;3.45;;;32.60;87.50;;;;;;5010191;28;20021;-35
2023/06/11 12:49:37;;;;;;;8.90;3.67;;;32.70;88.00;;;;;;5014321;28;20363;-34